Time;durP1;ratioP1;P1;durP2;ratioP2;P2;SDS_P1;SDS_P2;PMS_P1;PMS_P2;Temp;Humidity;BMP_temperature;BMP_pressure;BME280_temperature;BME280_humidity;BME280_pressure;Samples;Min_cycle;Max_cycle;Signal;HPM_P1;HPM_P2
2021/07/09 00:00:54;;;;;;;3.03;1.95;;;20.10;99.90;;;;;;4902449;29;20404;-83
2021/07/09 00:03:20;;;;;;;2.55;2.35;;;20.20;99.90;;;;;;4877023;29;20498;-84
2021/07/09 00:05:46;;;;;;;2.25;2.15;;;20.20;99.90;;;;;;4908950;29;20422;-86
2021/07/09 00:08:12;;;;;;;2.17;2.08;;;20.10;99.90;;;;;;4919474;29;20431;-86
2021/07/09 00:10:42;;;;;;;2.15;2.00;;;20.20;99.90;;;;;;4895583;29;20405;-81
2021/07/09 00:13:08;;;;;;;2.38;2.17;;;20.20;99.90;;;;;;4911519;28;20403;-87
2021/07/09 00:15:40;;;;;;;2.25;2.05;;;20.20;99.90;;;;;;4892502;29;20385;-84
2021/07/09 00:18:14;;;;;;;2.65;2.45;;;20.10;99.90;;;;;;4922751;28;20381;-89
2021/07/09 00:20:43;;;;;;;3.53;2.50;;;20.10;99.90;;;;;;4912804;29;20407;-89
2021/07/09 00:23:10;;;;;;;2.55;2.35;;;20.10;99.90;;;;;;4902117;29;20405;-91
2021/07/09 00:25:36;;;;;;;2.40;2.30;;;20.00;99.90;;;;;;4887282;29;20415;-87
2021/07/09 00:28:03;;;;;;;2.92;2.72;;;20.00;99.90;;;;;;4870591;29;20425;-89
2021/07/09 00:30:29;;;;;;;2.58;2.38;;;20.00;99.90;;;;;;4899849;29;20431;-88
2021/07/09 00:32:55;;;;;;;1.90;1.80;;;20.00;99.90;;;;;;4903046;29;20411;-89
2021/07/09 00:35:24;;;;;;;2.13;2.03;;;20.00;99.90;;;;;;4902137;29;20406;-88
2021/07/09 00:37:50;;;;;;;2.23;2.03;;;20.00;99.90;;;;;;4899755;29;20437;-89
2021/07/09 00:40:16;;;;;;;2.38;2.10;;;20.10;99.90;;;;;;4899877;29;20408;-89
2021/07/09 00:42:42;;;;;;;1.83;1.73;;;20.10;99.90;;;;;;4883557;29;20400;-90
2021/07/09 00:45:09;;;;;;;2.25;2.05;;;20.10;99.90;;;;;;4886173;29;20425;-80
2021/07/09 00:47:35;;;;;;;2.50;2.30;;;20.10;99.90;;;;;;4875918;29;20413;-81
2021/07/09 00:50:01;;;;;;;2.50;2.30;;;20.10;99.90;;;;;;4903041;29;20459;-88
2021/07/09 00:52:30;;;;;;;2.53;2.33;;;20.10;99.90;;;;;;4901402;29;20418;-85
2021/07/09 00:54:57;;;;;;;2.03;1.92;;;20.10;99.90;;;;;;4884455;29;20406;-85
2021/07/09 00:57:23;;;;;;;2.38;2.22;;;20.10;99.90;;;;;;4886337;29;20402;-80
2021/07/09 00:59:49;;;;;;;2.20;2.10;;;20.10;99.90;;;;;;4887444;29;20470;-82
2021/07/09 01:02:15;;;;;;;2.30;2.20;;;20.10;99.90;;;;;;4931064;29;20422;-86
2021/07/09 01:04:46;;;;;;;1.92;1.83;;;20.20;99.90;;;;;;4907268;29;20499;-83
2021/07/09 01:07:15;;;;;;;2.50;2.30;;;20.20;99.90;;;;;;4902109;28;20462;-89
2021/07/09 01:09:41;;;;;;;2.30;2.20;;;20.10;99.90;;;;;;4922150;28;20397;-86
2021/07/09 01:12:13;;;;;;;2.30;2.10;;;20.20;99.90;;;;;;4917510;29;20822;-86
2021/07/09 01:14:47;;;;;;;1.90;1.80;;;20.00;99.90;;;;;;4935199;28;20416;-87
2021/07/09 01:17:18;;;;;;;2.28;2.10;;;20.20;99.90;;;;;;4933774;28;20405;-87
2021/07/09 01:19:49;;;;;;;2.35;2.15;;;20.20;99.90;;;;;;4923776;29;20402;-87
2021/07/09 01:22:15;;;;;;;2.40;2.20;;;20.20;99.90;;;;;;4913335;29;20393;-85
2021/07/09 01:24:42;;;;;;;2.50;2.30;;;20.30;99.90;;;;;;4897721;29;20404;-89
2021/07/09 01:27:07;;;;;;;2.80;2.50;;;20.20;99.90;;;;;;4895303;29;20411;-88
2021/07/09 01:29:34;;;;;;;2.80;2.53;;;20.20;99.90;;;;;;4901911;29;20419;-87
2021/07/09 01:32:01;;;;;;;2.60;2.40;;;20.20;99.90;;;;;;4884512;29;20426;-88
2021/07/09 01:34:30;;;;;;;2.25;2.05;;;20.20;99.90;;;;;;4901470;29;20395;-87
2021/07/09 01:37:12;;;;;;;2.20;2.10;;;20.20;99.90;;;;;;4901108;28;20393;-86
2021/07/09 01:39:38;;;;;;;2.60;2.40;;;20.10;99.90;;;;;;4915374;29;20403;-81
2021/07/09 01:42:04;;;;;;;2.80;2.60;;;20.10;99.90;;;;;;4912157;29;20429;-81
2021/07/09 01:44:30;;;;;;;2.63;2.30;;;20.10;99.90;;;;;;4911039;29;20389;-88
2021/07/09 01:46:55;;;;;;;2.60;2.40;;;20.10;99.90;;;;;;4910984;29;20432;-83
2021/07/09 01:49:21;;;;;;;3.20;2.90;;;20.10;99.90;;;;;;4907728;29;20406;-85
2021/07/09 01:51:47;;;;;;;2.42;2.22;;;20.10;99.90;;;;;;4914617;29;20401;-81
2021/07/09 01:54:14;;;;;;;2.53;2.33;;;20.10;99.90;;;;;;4913957;29;20417;-81
2021/07/09 01:56:40;;;;;;;2.42;2.22;;;20.10;99.90;;;;;;4912838;29;20393;-82
2021/07/09 01:59:06;;;;;;;2.30;2.17;;;20.10;99.90;;;;;;4891358;29;20442;-81
2021/07/09 02:01:32;;;;;;;2.78;2.53;;;20.10;99.90;;;;;;4852441;29;20939;-81
2021/07/09 02:03:57;;;;;;;2.93;2.70;;;20.10;99.90;;;;;;4867779;29;20402;-81
2021/07/09 02:06:23;;;;;;;2.72;2.35;;;20.10;99.90;;;;;;4899334;29;20441;-80
2021/07/09 02:08:49;;;;;;;3.10;2.27;;;20.00;99.90;;;;;;4862448;29;20414;-81
2021/07/09 02:11:15;;;;;;;2.75;2.55;;;20.00;99.90;;;;;;4865120;29;20482;-80
2021/07/09 02:13:40;;;;;;;2.50;2.30;;;20.00;99.90;;;;;;4883552;29;20395;-85
2021/07/09 02:16:06;;;;;;;2.90;2.70;;;20.00;99.90;;;;;;4892395;29;20398;-79
2021/07/09 02:18:32;;;;;;;2.42;2.25;;;20.00;99.90;;;;;;4911033;29;20478;-83
2021/07/09 02:20:58;;;;;;;2.60;2.40;;;20.00;99.90;;;;;;4885315;29;20426;-82
2021/07/09 02:23:24;;;;;;;2.03;1.87;;;20.00;99.90;;;;;;4878181;29;20407;-84
2021/07/09 02:25:50;;;;;;;2.63;2.42;;;20.10;99.90;;;;;;4893518;29;20402;-82
2021/07/09 02:28:16;;;;;;;2.10;2.00;;;20.10;99.90;;;;;;4869849;29;20872;-82
2021/07/09 02:30:41;;;;;;;2.40;2.20;;;20.10;99.90;;;;;;4909465;29;20458;-82
2021/07/09 02:33:07;;;;;;;2.72;2.00;;;20.10;99.90;;;;;;4894141;29;20419;-80
2021/07/09 02:35:37;;;;;;;1.90;1.80;;;20.10;99.90;;;;;;4904161;29;20422;-87
2021/07/09 02:38:04;;;;;;;2.50;2.30;;;20.10;99.90;;;;;;4897506;29;20466;-84
2021/07/09 02:40:30;;;;;;;2.58;2.38;;;20.00;99.90;;;;;;4898739;29;20421;-87
2021/07/09 02:42:57;;;;;;;2.92;2.28;;;19.90;99.90;;;;;;4899247;29;20411;-86
2021/07/09 02:45:23;;;;;;;2.83;2.38;;;19.80;99.90;;;;;;4896986;29;20395;-87
2021/07/09 02:47:49;;;;;;;2.03;1.93;;;19.70;99.90;;;;;;4915265;29;20402;-83
2021/07/09 02:50:20;;;;;;;2.17;1.75;;;19.70;99.90;;;;;;4899785;29;20481;-86
2021/07/09 02:52:45;;;;;;;2.05;1.95;;;19.80;99.90;;;;;;4899202;29;20411;-88
2021/07/09 02:55:12;;;;;;;1.95;1.85;;;19.90;99.90;;;;;;4899442;29;20458;-89
2021/07/09 02:57:38;;;;;;;4.15;2.30;;;19.90;99.90;;;;;;4885435;29;20432;-77
2021/07/09 03:00:06;;;;;;;2.17;2.08;;;19.90;99.90;;;;;;4866568;29;20435;-76
2021/07/09 03:02:31;;;;;;;2.10;2.00;;;19.90;99.90;;;;;;4840888;29;20933;-77
2021/07/09 03:04:57;;;;;;;2.30;2.20;;;19.90;99.90;;;;;;4877390;29;20443;-78
2021/07/09 03:07:23;;;;;;;2.08;1.90;;;19.90;99.90;;;;;;4894551;29;20450;-78
2021/07/09 03:09:49;;;;;;;1.90;1.80;;;19.90;99.90;;;;;;4875421;29;20873;-80
2021/07/09 03:12:14;;;;;;;4.53;2.53;;;19.90;99.90;;;;;;4880826;29;20413;-79
2021/07/09 03:14:41;;;;;;;2.10;1.90;;;19.90;99.90;;;;;;4885904;29;20411;-78
2021/07/09 03:17:07;;;;;;;2.03;1.90;;;19.90;99.90;;;;;;4879606;29;20421;-79
2021/07/09 03:19:33;;;;;;;3.40;2.50;;;19.90;99.90;;;;;;4897330;29;20398;-81
2021/07/09 03:21:58;;;;;;;2.70;2.50;;;19.90;99.90;;;;;;4895101;29;20434;-81
2021/07/09 03:24:24;;;;;;;3.05;2.67;;;19.90;99.90;;;;;;4894203;29;20571;-80
2021/07/09 03:26:50;;;;;;;3.03;2.73;;;19.90;99.90;;;;;;4867682;29;20432;-78
2021/07/09 03:29:15;;;;;;;2.57;2.37;;;19.90;99.90;;;;;;4882928;29;20403;-80
2021/07/09 03:31:41;;;;;;;2.70;2.50;;;19.90;99.90;;;;;;4867368;29;20996;-78
2021/07/09 03:34:07;;;;;;;2.92;2.72;;;19.90;99.90;;;;;;4887482;29;20406;-80
2021/07/09 03:36:33;;;;;;;3.17;2.97;;;19.90;99.90;;;;;;4890314;29;21125;-80
2021/07/09 03:39:00;;;;;;;3.72;3.42;;;19.80;99.90;;;;;;4866193;29;20463;-80
2021/07/09 03:41:26;;;;;;;4.10;3.40;;;19.80;99.90;;;;;;4885762;29;20773;-79
2021/07/09 03:43:52;;;;;;;4.13;3.72;;;19.70;99.90;;;;;;4892497;29;20409;-82
2021/07/09 03:46:18;;;;;;;5.10;3.60;;;19.60;99.90;;;;;;4901931;29;20401;-81
2021/07/09 03:48:43;;;;;;;3.40;3.10;;;19.50;99.90;;;;;;4900091;29;20492;-78
2021/07/09 03:51:09;;;;;;;3.40;3.10;;;19.50;99.90;;;;;;4885106;29;20432;-78
2021/07/09 03:53:35;;;;;;;3.97;3.58;;;19.50;99.90;;;;;;4874328;29;20967;-77
2021/07/09 03:56:01;;;;;;;5.22;3.50;;;19.50;99.90;;;;;;4862902;29;20403;-77
2021/07/09 03:58:27;;;;;;;3.75;3.45;;;19.50;99.90;;;;;;4895187;29;20934;-77
2021/07/09 04:00:52;;;;;;;3.45;3.15;;;19.60;99.90;;;;;;4901617;29;20399;-77
2021/07/09 04:03:18;;;;;;;10.45;4.35;;;19.60;99.90;;;;;;4879164;29;21005;-78
2021/07/09 04:05:44;;;;;;;3.40;3.10;;;19.60;99.90;;;;;;4872952;29;20422;-78
2021/07/09 04:08:09;;;;;;;3.45;3.15;;;19.60;99.90;;;;;;4879141;29;20498;-79
2021/07/09 04:10:36;;;;;;;4.37;3.97;;;19.60;99.90;;;;;;4904886;29;20413;-77
2021/07/09 04:13:01;;;;;;;3.80;3.50;;;19.50;99.90;;;;;;4888148;29;20835;-80
2021/07/09 04:15:27;;;;;;;3.87;3.57;;;19.50;99.90;;;;;;4882290;29;20525;-81
2021/07/09 04:17:53;;;;;;;3.63;3.33;;;19.40;99.90;;;;;;4858798;29;20404;-78
2021/07/09 04:20:19;;;;;;;10.20;8.43;;;19.40;99.90;;;;;;4891944;29;20429;-77
2021/07/09 04:22:55;;;;;;;7.93;6.68;;;19.40;99.90;;;;;;4837055;29;20414;-78
2021/07/09 04:25:21;;;;;;;4.50;4.10;;;19.40;99.90;;;;;;4855019;29;20443;-77
2021/07/09 04:27:47;;;;;;;4.53;4.13;;;19.40;99.90;;;;;;4893797;29;20804;-80
2021/07/09 04:30:13;;;;;;;3.97;3.67;;;19.50;99.90;;;;;;4864003;29;20433;-78
2021/07/09 04:32:39;;;;;;;4.10;3.70;;;19.50;99.90;;;;;;4891120;29;20413;-75
2021/07/09 04:35:05;;;;;;;3.53;3.23;;;19.50;99.90;;;;;;4896752;29;20423;-75
2021/07/09 04:37:31;;;;;;;3.90;3.60;;;19.50;99.90;;;;;;4900878;29;20466;-73
2021/07/09 04:39:59;;;;;;;4.33;3.93;;;19.50;99.90;;;;;;4898694;29;20407;-73
2021/07/09 04:42:25;;;;;;;4.80;4.40;;;19.50;99.90;;;;;;4896561;29;20411;-73
2021/07/09 04:44:50;;;;;;;3.97;3.67;;;19.50;99.90;;;;;;4886125;29;20413;-74
2021/07/09 04:47:16;;;;;;;4.35;3.95;;;19.50;99.90;;;;;;4880117;29;20432;-73
2021/07/09 04:49:42;;;;;;;5.07;4.57;;;19.50;99.90;;;;;;4886191;29;20412;-77
2021/07/09 04:52:07;;;;;;;4.03;3.73;;;19.50;99.90;;;;;;4877069;29;20480;-76
2021/07/09 04:54:33;;;;;;;3.53;3.22;;;19.40;99.90;;;;;;4877752;29;20407;-76
2021/07/09 04:56:59;;;;;;;4.60;4.20;;;19.40;99.90;;;;;;4875215;29;20675;-76
2021/07/09 04:59:25;;;;;;;4.07;3.78;;;19.40;99.90;;;;;;4879712;29;20433;-76
2021/07/09 05:01:50;;;;;;;5.40;4.20;;;19.40;99.90;;;;;;4891472;29;20434;-76
2021/07/09 05:04:16;;;;;;;5.63;3.83;;;19.40;99.90;;;;;;4896641;29;20445;-77
2021/07/09 05:06:42;;;;;;;3.75;3.45;;;19.40;99.90;;;;;;4880594;29;20432;-76
2021/07/09 05:09:08;;;;;;;5.00;4.60;;;19.40;99.90;;;;;;4882943;29;20399;-76
2021/07/09 05:11:34;;;;;;;4.30;4.00;;;19.40;99.90;;;;;;4886407;29;20961;-76
2021/07/09 05:14:02;;;;;;;4.30;3.90;;;19.40;99.90;;;;;;4881019;29;20414;-75
2021/07/09 05:16:28;;;;;;;4.30;3.90;;;19.40;99.90;;;;;;4882498;29;20454;-77
2021/07/09 05:18:55;;;;;;;5.18;4.07;;;19.40;99.90;;;;;;4889799;29;20403;-76
2021/07/09 05:21:21;;;;;;;6.75;4.75;;;19.40;99.90;;;;;;4893053;29;20421;-76
2021/07/09 05:23:47;;;;;;;6.38;4.15;;;19.40;99.90;;;;;;4890083;29;20396;-77
2021/07/09 05:26:12;;;;;;;4.90;4.40;;;19.40;99.90;;;;;;4890374;29;20403;-75
2021/07/09 05:28:39;;;;;;;3.78;3.45;;;19.40;99.90;;;;;;4867854;29;20429;-75
2021/07/09 05:31:06;;;;;;;4.43;4.03;;;19.50;99.90;;;;;;4899503;29;20411;-75
2021/07/09 05:33:31;;;;;;;4.75;3.95;;;19.50;99.90;;;;;;4884891;29;21083;-75
2021/07/09 05:35:57;;;;;;;4.57;3.95;;;19.60;99.90;;;;;;4881801;29;20424;-75
2021/07/09 05:38:23;;;;;;;3.60;3.17;;;19.60;99.90;;;;;;4875966;29;20498;-75
2021/07/09 05:40:48;;;;;;;4.33;3.93;;;19.70;99.90;;;;;;4877167;29;20410;-75
2021/07/09 05:43:14;;;;;;;4.35;3.95;;;19.80;99.90;;;;;;4878068;29;20947;-76
2021/07/09 05:45:40;;;;;;;4.57;3.53;;;19.80;99.90;;;;;;4876465;29;20402;-75
2021/07/09 05:48:06;;;;;;;4.30;3.90;;;19.90;99.90;;;;;;4890183;29;20921;-76
2021/07/09 05:50:32;;;;;;;4.47;4.07;;;19.90;99.90;;;;;;4873560;29;20684;-76
2021/07/09 05:52:57;;;;;;;4.97;4.25;;;19.90;99.90;;;;;;4877459;29;20459;-76
2021/07/09 05:55:23;;;;;;;4.20;3.83;;;20.00;99.90;;;;;;4876733;29;20429;-75
2021/07/09 05:57:49;;;;;;;4.32;3.92;;;20.00;99.90;;;;;;4861731;29;20829;-75
2021/07/09 06:00:15;;;;;;;4.43;3.90;;;20.10;99.90;;;;;;4873870;29;20420;-75
2021/07/09 06:02:41;;;;;;;4.82;4.43;;;20.10;99.90;;;;;;4856635;29;20490;-75
2021/07/09 06:05:09;;;;;;;6.47;4.53;;;20.20;99.90;;;;;;4860002;29;20417;-76
2021/07/09 06:07:35;;;;;;;4.33;3.93;;;20.20;99.90;;;;;;4901524;29;20474;-75
2021/07/09 06:10:01;;;;;;;4.95;4.45;;;20.30;99.90;;;;;;4909872;29;20403;-76
2021/07/09 06:12:27;;;;;;;4.03;3.73;;;20.30;99.90;;;;;;4909551;29;20466;-77
2021/07/09 06:14:53;;;;;;;5.32;4.15;;;20.30;99.90;;;;;;4908761;29;20470;-75
2021/07/09 06:17:19;;;;;;;4.68;4.28;;;20.40;99.90;;;;;;4899271;29;20414;-75
2021/07/09 06:19:44;;;;;;;4.60;4.10;;;20.40;99.90;;;;;;4876773;29;20407;-75
2021/07/09 06:22:10;;;;;;;4.10;3.70;;;20.40;99.90;;;;;;4893834;29;20516;-75
2021/07/09 06:24:36;;;;;;;3.80;3.50;;;20.60;99.90;;;;;;4876389;29;20487;-77
2021/07/09 06:27:02;;;;;;;4.60;4.13;;;20.70;99.90;;;;;;4876855;29;20494;-79
2021/07/09 06:29:27;;;;;;;5.20;3.55;;;20.80;99.90;;;;;;4885353;29;20414;-79
2021/07/09 06:31:53;;;;;;;3.70;3.40;;;20.90;99.90;;;;;;4879006;29;20541;-78
2021/07/09 06:34:19;;;;;;;4.40;4.00;;;21.10;99.90;;;;;;4869965;29;20492;-79
2021/07/09 06:36:46;;;;;;;4.35;3.95;;;21.20;99.90;;;;;;4888409;29;20821;-79
2021/07/09 06:39:11;;;;;;;4.28;3.88;;;21.20;99.90;;;;;;4891812;29;20423;-80
2021/07/09 06:41:37;;;;;;;3.88;3.58;;;21.30;99.90;;;;;;4891074;29;20492;-77
2021/07/09 06:44:03;;;;;;;4.63;4.20;;;21.30;99.90;;;;;;4874960;29;23106;-78
2021/07/09 06:46:29;;;;;;;4.43;4.03;;;21.40;99.90;;;;;;4883226;29;20750;-81
2021/07/09 06:48:55;;;;;;;4.18;3.58;;;21.50;99.90;;;;;;4909610;29;20407;-78
2021/07/09 06:51:20;;;;;;;3.25;3.05;;;21.50;99.90;;;;;;4879028;29;20393;-78
2021/07/09 06:53:49;;;;;;;3.90;3.60;;;21.60;99.90;;;;;;4856425;29;20408;-78
2021/07/09 06:56:15;;;;;;;3.40;3.00;;;21.60;99.90;;;;;;4862725;29;20473;-78
2021/07/09 06:58:41;;;;;;;3.45;3.13;;;21.70;99.90;;;;;;4856589;29;20786;-80
2021/07/09 07:01:07;;;;;;;3.75;3.17;;;21.90;99.90;;;;;;4871303;29;20408;-79
2021/07/09 07:03:33;;;;;;;3.43;3.13;;;22.10;99.90;;;;;;4872607;29;20405;-80
2021/07/09 07:05:58;;;;;;;2.97;2.78;;;22.10;99.90;;;;;;4898425;29;20833;-80
2021/07/09 07:08:25;;;;;;;4.53;3.33;;;22.10;99.90;;;;;;4877643;29;20428;-80
2021/07/09 07:10:51;;;;;;;3.92;2.80;;;22.30;99.90;;;;;;4894004;29;20399;-80
2021/07/09 07:13:18;;;;;;;3.27;2.97;;;22.40;99.90;;;;;;4908705;29;20405;-79
2021/07/09 07:15:44;;;;;;;2.90;2.70;;;22.50;99.90;;;;;;4886757;29;20747;-79
2021/07/09 07:18:10;;;;;;;2.83;2.63;;;22.60;99.90;;;;;;4883389;29;20402;-79
2021/07/09 07:20:39;;;;;;;2.80;2.60;;;22.60;99.90;;;;;;4900104;29;20407;-78
2021/07/09 07:23:05;;;;;;;3.17;2.97;;;22.60;99.90;;;;;;4888210;29;20833;-79
2021/07/09 07:25:31;;;;;;;3.10;2.80;;;22.50;99.90;;;;;;4874741;29;20410;-80
2021/07/09 07:27:58;;;;;;;3.20;2.90;;;22.50;99.90;;;;;;4867869;29;20414;-78
2021/07/09 07:30:24;;;;;;;2.78;2.58;;;22.60;99.90;;;;;;4858866;29;20494;-78
2021/07/09 07:32:49;;;;;;;2.97;2.78;;;22.60;99.90;;;;;;4890329;29;20498;-78
2021/07/09 07:35:15;;;;;;;2.90;2.70;;;22.70;99.90;;;;;;4901212;29;20858;-80
2021/07/09 07:37:41;;;;;;;2.70;2.50;;;22.80;99.90;;;;;;4878388;29;20460;-78
2021/07/09 07:40:07;;;;;;;3.00;2.70;;;22.80;99.90;;;;;;4893209;29;20416;-78
2021/07/09 07:42:33;;;;;;;2.42;2.22;;;22.80;99.90;;;;;;4893214;29;20417;-79
2021/07/09 07:44:58;;;;;;;2.17;2.08;;;22.90;99.90;;;;;;4894141;29;20457;-81
2021/07/09 07:47:24;;;;;;;2.50;2.30;;;23.00;99.90;;;;;;4902097;29;20516;-80
2021/07/09 07:49:49;;;;;;;2.60;2.40;;;23.10;99.90;;;;;;4879767;29;20457;-79
2021/07/09 07:52:15;;;;;;;2.90;2.60;;;23.10;99.90;;;;;;4905854;29;20434;-78
2021/07/09 07:54:41;;;;;;;2.43;2.27;;;23.00;99.90;;;;;;4905792;29;20908;-78
2021/07/09 07:57:06;;;;;;;2.33;2.23;;;23.10;99.90;;;;;;4894605;29;20478;-78
2021/07/09 07:59:32;;;;;;;2.25;2.15;;;23.00;99.90;;;;;;4901506;29;20412;-78
2021/07/09 08:01:58;;;;;;;2.20;2.00;;;23.00;99.90;;;;;;4879670;29;20456;-78
2021/07/09 08:04:24;;;;;;;2.80;2.60;;;23.00;99.90;;;;;;4876656;29;20410;-78
2021/07/09 08:06:49;;;;;;;2.47;2.20;;;23.10;99.90;;;;;;4876403;29;20466;-78
2021/07/09 08:09:15;;;;;;;2.33;2.13;;;23.00;99.90;;;;;;4878137;29;20463;-79
2021/07/09 08:11:41;;;;;;;2.92;2.70;;;23.10;99.90;;;;;;4876709;29;20415;-78
2021/07/09 08:14:06;;;;;;;2.08;1.98;;;23.20;99.90;;;;;;4877484;29;20399;-81
2021/07/09 08:16:32;;;;;;;2.63;2.43;;;23.20;99.90;;;;;;4878607;29;20417;-79
2021/07/09 08:18:58;;;;;;;2.85;2.65;;;23.20;99.90;;;;;;4892736;29;20415;-78
2021/07/09 08:21:24;;;;;;;2.20;2.10;;;23.30;99.90;;;;;;4878031;29;20474;-79
2021/07/09 08:23:49;;;;;;;2.20;2.10;;;23.30;99.90;;;;;;4893259;29;20406;-77
2021/07/09 08:26:15;;;;;;;2.83;2.63;;;23.30;99.90;;;;;;4893598;29;20430;-79
2021/07/09 08:28:41;;;;;;;2.47;2.28;;;23.30;99.90;;;;;;4877458;29;20409;-79
2021/07/09 08:31:06;;;;;;;2.10;2.00;;;23.30;99.90;;;;;;4878682;29;20492;-77
2021/07/09 08:33:32;;;;;;;2.03;1.93;;;23.20;99.90;;;;;;4877411;29;20410;-79
2021/07/09 08:35:58;;;;;;;2.40;2.20;;;23.30;99.90;;;;;;4873748;29;20405;-77
2021/07/09 08:38:24;;;;;;;2.00;1.90;;;23.30;99.90;;;;;;4860745;29;20407;-78
2021/07/09 08:40:49;;;;;;;2.70;2.00;;;23.20;99.90;;;;;;4890923;29;20408;-78
2021/07/09 08:43:15;;;;;;;2.10;2.00;;;23.20;99.90;;;;;;4896588;29;20890;-77
2021/07/09 08:45:41;;;;;;;2.30;2.10;;;23.20;99.90;;;;;;4895167;29;20440;-77
2021/07/09 08:48:08;;;;;;;2.10;2.00;;;23.10;99.90;;;;;;4895672;29;20936;-78
2021/07/09 08:50:34;;;;;;;1.90;1.80;;;23.00;99.90;;;;;;4892659;29;20908;-78
2021/07/09 08:52:59;;;;;;;2.17;2.00;;;23.20;99.90;;;;;;4877093;29;20415;-78
2021/07/09 08:55:25;;;;;;;2.17;1.98;;;23.50;99.90;;;;;;4878580;29;20511;-77
2021/07/09 08:57:51;;;;;;;2.13;2.03;;;23.70;99.90;;;;;;4877536;29;20459;-78
2021/07/09 09:00:32;;;;;;;2.35;2.17;;;23.80;99.90;;;;;;4875395;29;20923;-79
2021/07/09 09:02:57;;;;;;;2.00;1.90;;;23.90;99.90;;;;;;4862446;29;20422;-77
2021/07/09 09:05:28;;;;;;;2.00;1.80;;;23.90;99.90;;;;;;4878030;29;20434;-77
2021/07/09 09:08:00;;;;;;;2.33;2.10;;;24.00;99.90;;;;;;4902324;29;20510;-79
2021/07/09 09:10:38;;;;;;;2.08;1.98;;;24.00;99.90;;;;;;4889523;29;20461;-77
2021/07/09 09:13:23;;;;;;;2.90;2.10;;;24.10;99.90;;;;;;4896222;29;20485;-77
2021/07/09 09:15:58;;;;;;;2.25;2.10;;;24.30;99.90;;;;;;4906995;29;20490;-77
2021/07/09 09:18:25;;;;;;;2.15;2.05;;;24.50;99.90;;;;;;4882717;29;20411;-77
2021/07/09 09:21:07;;;;;;;2.17;2.08;;;24.40;99.90;;;;;;4892509;29;20413;-77
2021/07/09 09:23:35;;;;;;;2.13;1.97;;;24.50;99.90;;;;;;4877201;29;20491;-77
2021/07/09 09:26:01;;;;;;;1.70;1.60;;;24.50;99.90;;;;;;4876804;29;20821;-79
2021/07/09 09:28:30;;;;;;;2.27;2.10;;;24.50;99.90;;;;;;4882756;29;22059;-77
2021/07/09 09:30:56;;;;;;;2.08;1.98;;;24.40;99.90;;;;;;4872249;29;20843;-77
2021/07/09 09:33:23;;;;;;;1.42;1.42;;;24.60;99.90;;;;;;4891979;29;20439;-77
2021/07/09 09:35:55;;;;;;;1.92;1.83;;;24.90;99.90;;;;;;4877416;29;20428;-77
2021/07/09 09:38:25;;;;;;;1.90;1.80;;;25.00;99.90;;;;;;4878468;29;20446;-77
2021/07/09 09:40:50;;;;;;;2.20;2.00;;;25.00;99.90;;;;;;4877162;29;20418;-77
2021/07/09 09:43:19;;;;;;;1.65;1.55;;;25.10;99.90;;;;;;4878080;29;20398;-78
2021/07/09 09:45:45;;;;;;;2.17;1.98;;;25.40;99.90;;;;;;4846427;29;20411;-77
2021/07/09 09:48:16;;;;;;;2.57;1.87;;;25.70;99.90;;;;;;4862543;29;20426;-78
2021/07/09 09:50:50;;;;;;;1.90;1.70;;;25.90;99.90;;;;;;4861677;29;20403;-78
2021/07/09 09:53:33;;;;;;;1.65;1.55;;;25.80;99.90;;;;;;4892251;29;20426;-78
2021/07/09 09:56:14;;;;;;;1.67;1.58;;;25.90;99.90;;;;;;4876581;29;20467;-78
2021/07/09 09:58:49;;;;;;;1.80;1.65;;;26.10;99.90;;;;;;4869380;29;20900;-78
2021/07/09 10:01:30;;;;;;;1.98;1.77;;;26.40;99.90;;;;;;4860080;29;20419;-78
2021/07/09 10:03:56;;;;;;;1.98;1.83;;;26.90;99.90;;;;;;4891403;29;20403;-78
2021/07/09 10:06:23;;;;;;;1.93;1.83;;;26.90;99.90;;;;;;4878277;29;20808;-78
2021/07/09 10:08:49;;;;;;;1.73;1.63;;;27.20;99.90;;;;;;4862191;29;20423;-78
2021/07/09 10:11:15;;;;;;;1.80;1.70;;;27.60;99.90;;;;;;4876716;29;20411;-77
2021/07/09 10:13:44;;;;;;;1.77;1.67;;;28.00;99.90;;;;;;4876795;29;20398;-78
2021/07/09 10:16:14;;;;;;;1.30;1.30;;;28.20;99.90;;;;;;4860580;29;20490;-78
2021/07/09 10:18:39;;;;;;;1.60;1.50;;;28.40;99.90;;;;;;4881073;29;20429;-78
2021/07/09 10:21:05;;;;;;;1.55;1.45;;;28.70;99.90;;;;;;4893533;29;20416;-78
2021/07/09 10:23:31;;;;;;;1.80;1.70;;;28.80;99.90;;;;;;4895701;29;20481;-78
2021/07/09 10:25:57;;;;;;;1.53;1.43;;;29.10;99.90;;;;;;4889583;29;21094;-78
2021/07/09 10:28:23;;;;;;;1.70;1.60;;;29.30;99.90;;;;;;4881943;29;20910;-78
2021/07/09 10:30:50;;;;;;;1.50;1.40;;;29.00;99.90;;;;;;4895498;29;20444;-77
2021/07/09 10:33:34;;;;;;;1.73;1.50;;;28.70;99.90;;;;;;4904042;29;20468;-76
2021/07/09 10:36:27;;;;;;;1.50;1.40;;;28.60;99.90;;;;;;4891551;29;20474;-76
2021/07/09 10:38:56;;;;;;;1.35;1.25;;;28.70;99.90;;;;;;4878057;29;20399;-76
2021/07/09 10:41:22;;;;;;;1.30;1.30;;;28.30;99.90;;;;;;4882887;29;20415;-75
2021/07/09 10:44:17;;;;;;;1.52;1.42;;;28.60;99.90;;;;;;4876270;29;20423;-76
2021/07/09 10:46:44;;;;;;;1.73;1.52;;;29.10;99.90;;;;;;4894323;29;20481;-76
2021/07/09 10:49:09;;;;;;;8.43;1.70;;;29.70;99.90;;;;;;4874208;29;20411;-76
2021/07/09 10:51:48;;;;;;;1.67;1.58;;;29.70;99.90;;;;;;4879761;29;20429;-77
2021/07/09 10:54:27;;;;;;;1.85;1.75;;;29.60;99.90;;;;;;4877210;29;20773;-76
2021/07/09 10:57:25;;;;;;;1.90;1.80;;;29.80;99.90;;;;;;4874892;29;20423;-76
2021/07/09 11:00:36;;;;;;;2.10;2.00;;;30.30;99.90;;;;;;4854465;29;20399;-76
2021/07/09 11:03:05;;;;;;;2.05;1.95;;;30.30;99.90;;;;;;4854501;29;20523;-76
2021/07/09 11:05:42;;;;;;;1.95;1.85;;;30.90;99.90;;;;;;4883340;29;20401;-76
2021/07/09 11:08:32;;;;;;;2.05;1.95;;;31.30;99.90;;;;;;4903548;29;20458;-76
2021/07/09 11:11:02;;;;;;;2.10;1.90;;;31.90;99.90;;;;;;4891073;29;20403;-77
2021/07/09 11:13:40;;;;;;;1.95;1.85;;;32.10;99.90;;;;;;4894357;29;21123;-76
2021/07/09 11:16:23;;;;;;;2.20;2.10;;;32.30;99.90;;;;;;4862621;29;20894;-77
2021/07/09 11:19:04;;;;;;;1.90;1.80;;;32.50;99.90;;;;;;4891239;29;20458;-77
2021/07/09 11:21:30;;;;;;;1.95;1.83;;;32.60;99.90;;;;;;4893032;29;21056;-76
2021/07/09 11:23:59;;;;;;;2.10;2.00;;;32.30;99.90;;;;;;4891983;29;20403;-78
2021/07/09 11:26:35;;;;;;;2.15;2.05;;;32.10;99.90;;;;;;4874669;29;20435;-76
2021/07/09 11:29:17;;;;;;;2.10;2.00;;;31.70;99.90;;;;;;4885677;29;20929;-77
2021/07/09 11:31:42;;;;;;;3.20;2.00;;;31.70;99.90;;;;;;4874145;29;20399;-76
2021/07/09 11:34:10;;;;;;;1.77;1.67;;;31.30;99.90;;;;;;4874840;29;20487;-75
2021/07/09 11:36:42;;;;;;;1.92;1.83;;;31.10;99.90;;;;;;4890872;29;20398;-76
2021/07/09 11:39:11;;;;;;;1.80;1.70;;;30.70;99.90;;;;;;4884431;29;20410;-76
2021/07/09 11:41:57;;;;;;;2.03;1.92;;;30.40;99.90;;;;;;4882428;29;20408;-76
2021/07/09 11:44:25;;;;;;;2.17;1.70;;;30.40;99.90;;;;;;4864444;29;20412;-76
2021/07/09 11:46:53;;;;;;;2.00;1.90;;;30.50;99.90;;;;;;4862221;29;20788;-76
2021/07/09 11:49:33;;;;;;;1.90;1.80;;;30.70;99.90;;;;;;4880945;29;20442;-76
2021/07/09 11:52:06;;;;;;;2.00;1.90;;;31.20;99.90;;;;;;4880712;29;20414;-76
2021/07/09 11:54:37;;;;;;;1.95;1.85;;;31.30;99.90;;;;;;4880916;29;20398;-76
2021/07/09 11:57:10;;;;;;;2.00;1.90;;;31.50;99.90;;;;;;4871465;29;20391;-76
2021/07/09 11:59:37;;;;;;;2.10;2.00;;;31.20;99.90;;;;;;4882296;29;20410;-77
2021/07/09 12:02:04;;;;;;;2.20;2.00;;;31.30;99.90;;;;;;4870765;29;20548;-78
2021/07/09 12:04:30;;;;;;;1.88;1.77;;;31.60;99.90;;;;;;4887973;29;20393;-77
2021/07/09 12:07:19;;;;;;;2.35;2.17;;;31.20;99.90;;;;;;4888081;29;20914;-76
2021/07/09 12:09:52;;;;;;;1.98;1.88;;;31.30;99.90;;;;;;4883285;29;20432;-76
2021/07/09 12:12:18;;;;;;;2.00;1.90;;;31.90;99.90;;;;;;4879766;29;20733;-76
2021/07/09 12:15:00;;;;;;;1.80;1.70;;;32.10;99.90;;;;;;4877740;29;20459;-78
2021/07/09 12:17:28;;;;;;;3.50;2.00;;;32.60;99.90;;;;;;4888477;29;20490;-77
2021/07/09 12:20:06;;;;;;;2.13;2.03;;;33.00;99.90;;;;;;4892964;29;20493;-78
2021/07/09 12:22:39;;;;;;;1.80;1.70;;;32.90;99.90;;;;;;4893597;29;20415;-77
2021/07/09 12:25:07;;;;;;;1.88;1.77;;;33.10;99.90;;;;;;4892416;29;20892;-78
2021/07/09 12:27:34;;;;;;;1.83;1.73;;;32.80;99.90;;;;;;4894421;29;20774;-77
2021/07/09 12:30:07;;;;;;;2.03;1.85;;;32.70;99.90;;;;;;4882532;29;20476;-79
2021/07/09 12:32:33;;;;;;;1.70;1.60;;;32.70;99.90;;;;;;4887647;29;20433;-76
2021/07/09 12:35:06;;;;;;;2.10;1.90;;;32.80;99.90;;;;;;4879519;29;20419;-76
2021/07/09 12:37:32;;;;;;;1.80;1.70;;;33.00;99.90;;;;;;4880649;29;20472;-76
2021/07/09 12:40:12;;;;;;;1.83;1.73;;;33.10;99.90;;;;;;4895834;29;20975;-76
2021/07/09 12:42:38;;;;;;;1.83;1.73;;;33.30;99.90;;;;;;4866266;29;20912;-78
2021/07/09 12:45:05;;;;;;;1.77;1.67;;;33.10;99.90;;;;;;4870001;29;20454;-77
2021/07/09 12:47:32;;;;;;;5.20;1.75;;;33.00;99.90;;;;;;4879077;29;20499;-76
2021/07/09 12:50:17;;;;;;;2.05;1.85;;;32.90;99.90;;;;;;4903013;29;20411;-76
2021/07/09 12:52:43;;;;;;;2.47;1.90;;;32.80;99.90;;;;;;4870816;29;20443;-77